sensor_id;sensor_type;location;lat;lon;timestamp;pressure;altitude;pressure_sealevel;temperature;humidity
3524;BME280;1776;53.330;11.498;2022-09-09T00:00:30;53861.19;;;-147.39;82.10
3524;BME280;1776;53.330;11.498;2022-09-09T00:03:06;53853.00;;;-147.39;82.17
3524;BME280;1776;53.330;11.498;2022-09-09T00:05:44;53824.31;;;-147.39;82.10
3524;BME280;1776;53.330;11.498;2022-09-09T00:08:19;53859.16;;;-147.39;81.98
3524;BME280;1776;53.330;11.498;2022-09-09T00:10:48;53840.72;;;-147.39;81.73
3524;BME280;1776;53.330;11.498;2022-09-09T00:13:42;53861.19;;;-147.39;81.50
3524;BME280;1776;53.330;11.498;2022-09-09T00:16:32;53871.44;;;-147.39;81.11
3524;BME280;1776;53.330;11.498;2022-09-09T00:19:20;53853.00;;;-147.39;81.16
3524;BME280;1776;53.330;11.498;2022-09-09T00:22:10;53822.28;;;-147.39;81.27
3524;BME280;1776;53.330;11.498;2022-09-09T00:24:48;53836.63;;;-147.39;81.42
3524;BME280;1776;53.330;11.498;2022-09-09T00:30:24;53824.31;;;-147.39;81.44
3524;BME280;1776;53.330;11.498;2022-09-09T00:32:53;53850.97;;;-147.39;81.46
3524;BME280;1776;53.330;11.498;2022-09-09T00:35:24;53850.97;;;-147.39;81.17
3524;BME280;1776;53.330;11.498;2022-09-09T00:37:52;53844.81;;;-147.39;80.59
3524;BME280;1776;53.330;11.498;2022-09-09T00:40:41;53861.19;;;-147.39;80.61
3524;BME280;1776;53.330;11.498;2022-09-09T00:51:34;53846.88;;;-147.39;79.96
3524;BME280;1776;53.330;11.498;2022-09-09T00:59:55;53861.19;;;-147.39;80.18
3524;BME280;1776;53.330;11.498;2022-09-09T01:02:43;53859.16;;;-147.39;80.51
3524;BME280;1776;53.330;11.498;2022-09-09T01:05:24;53830.47;;;-147.39;81.08
3524;BME280;1776;53.330;11.498;2022-09-09T01:07:52;53820.22;;;-147.39;81.48
3524;BME280;1776;53.330;11.498;2022-09-09T01:10:39;53826.38;;;-147.39;81.41
3524;BME280;1776;53.330;11.498;2022-09-09T01:13:16;53820.22;;;-147.39;81.50
3524;BME280;1776;53.330;11.498;2022-09-09T01:15:44;53875.53;;;-147.39;81.42
3524;BME280;1776;53.330;11.498;2022-09-09T01:18:13;53818.19;;;-147.39;81.50
3524;BME280;1776;53.330;11.498;2022-09-09T01:21:05;53853.00;;;-147.39;81.58
3524;BME280;1776;53.330;11.498;2022-09-09T01:23:56;53857.09;;;-147.39;81.75
3524;BME280;1776;53.330;11.498;2022-09-09T01:26:30;53875.53;;;-147.39;82.29
3524;BME280;1776;53.330;11.498;2022-09-09T01:28:59;53861.19;;;-147.39;82.85
3524;BME280;1776;53.330;11.498;2022-09-09T01:31:35;53853.00;;;-147.39;82.82
3524;BME280;1776;53.330;11.498;2022-09-09T01:34:02;53871.44;;;-147.39;83.01
3524;BME280;1776;53.330;11.498;2022-09-09T01:36:47;53861.19;;;-147.39;83.00
3524;BME280;1776;53.330;11.498;2022-09-09T01:39:16;53863.25;;;-147.39;83.16
3524;BME280;1776;53.330;11.498;2022-09-09T01:41:42;53887.84;;;-147.39;83.76
3524;BME280;1776;53.330;11.498;2022-09-09T01:44:08;53887.84;;;-147.39;83.45
3524;BME280;1776;53.330;11.498;2022-09-09T01:46:34;53871.44;;;-147.39;83.10
3524;BME280;1776;53.330;11.498;2022-09-09T01:49:00;53877.59;;;-147.39;83.05
3524;BME280;1776;53.330;11.498;2022-09-09T01:51:27;53889.88;;;-147.39;83.72
3524;BME280;1776;53.330;11.498;2022-09-09T01:53:52;53834.56;;;-147.39;83.91
3524;BME280;1776;53.330;11.498;2022-09-09T01:58:56;53873.50;;;-147.39;84.30
3524;BME280;1776;53.330;11.498;2022-09-09T02:01:38;53859.16;;;-147.39;84.42
3524;BME280;1776;53.330;11.498;2022-09-09T02:04:28;53865.31;;;-147.39;84.48
3524;BME280;1776;53.330;11.498;2022-09-09T02:06:59;53853.00;;;-147.39;84.30
3524;BME280;1776;53.330;11.498;2022-09-09T02:09:26;53857.09;;;-147.39;84.31
3524;BME280;1776;53.330;11.498;2022-09-09T02:12:00;53859.16;;;-147.39;84.35
3524;BME280;1776;53.330;11.498;2022-09-09T02:14:32;53855.06;;;-147.39;84.50
3524;BME280;1776;53.330;11.498;2022-09-09T02:17:09;53879.63;;;-147.39;84.45
3524;BME280;1776;53.330;11.498;2022-09-09T02:19:45;53875.53;;;-147.39;84.63
3524;BME280;1776;53.330;11.498;2022-09-09T02:22:16;53861.19;;;-147.39;84.36
3524;BME280;1776;53.330;11.498;2022-09-09T02:24:42;53871.44;;;-147.39;84.10
3524;BME280;1776;53.330;11.498;2022-09-09T02:27:10;53842.75;;;-147.39;84.39
3524;BME280;1776;53.330;11.498;2022-09-09T02:29:42;53865.31;;;-147.39;84.35
3524;BME280;1776;53.330;11.498;2022-09-09T02:32:14;53859.16;;;-147.39;84.24
3524;BME280;1776;53.330;11.498;2022-09-09T02:34:47;53861.19;;;-147.39;84.14
3524;BME280;1776;53.330;11.498;2022-09-09T02:37:18;53867.34;;;-147.39;83.96
3524;BME280;1776;53.330;11.498;2022-09-09T02:39:45;53863.25;;;-147.39;83.69
3524;BME280;1776;53.330;11.498;2022-09-09T02:42:10;53863.25;;;-147.39;83.28
3524;BME280;1776;53.330;11.498;2022-09-09T02:44:36;53846.88;;;-147.39;82.52
3524;BME280;1776;53.330;11.498;2022-09-09T02:50:11;53859.16;;;-147.39;81.99
3524;BME280;1776;53.330;11.498;2022-09-09T02:58:08;53877.59;;;-147.39;81.68
3524;BME280;1776;53.330;11.498;2022-09-09T03:00:36;53887.84;;;-147.39;81.47
3524;BME280;1776;53.330;11.498;2022-09-09T03:03:03;53838.66;;;-147.39;81.15
3524;BME280;1776;53.330;11.498;2022-09-09T03:05:29;53844.81;;;-147.39;80.85
3524;BME280;1776;53.330;11.498;2022-09-09T03:07:54;53875.53;;;-147.39;81.21
3524;BME280;1776;53.330;11.498;2022-09-09T03:10:20;53869.41;;;-147.39;81.37
3524;BME280;1776;53.330;11.498;2022-09-09T03:12:45;53869.41;;;-147.39;80.99
3524;BME280;1776;53.330;11.498;2022-09-09T03:15:10;53883.75;;;-147.39;81.21
3524;BME280;1776;53.330;11.498;2022-09-09T03:17:36;53896.03;;;-147.39;81.01
3524;BME280;1776;53.330;11.498;2022-09-09T03:20:04;53875.53;;;-147.39;81.04
3524;BME280;1776;53.330;11.498;2022-09-09T03:22:30;53859.16;;;-147.39;80.72
3524;BME280;1776;53.330;11.498;2022-09-09T03:24:56;53859.16;;;-147.39;80.64
3524;BME280;1776;53.330;11.498;2022-09-09T03:27:22;53867.34;;;-147.39;80.23
3524;BME280;1776;53.330;11.498;2022-09-09T03:29:48;53842.75;;;-147.39;79.47
3524;BME280;1776;53.330;11.498;2022-09-09T03:32:16;53844.81;;;-147.39;79.12
3524;BME280;1776;53.330;11.498;2022-09-09T03:34:43;53857.09;;;-147.39;78.93
3524;BME280;1776;53.330;11.498;2022-09-09T03:37:08;53859.16;;;-147.39;78.47
3524;BME280;1776;53.330;11.498;2022-09-09T03:39:33;53853.00;;;-147.39;78.22
3524;BME280;1776;53.330;11.498;2022-09-09T03:41:58;53844.81;;;-147.39;78.27
3524;BME280;1776;53.330;11.498;2022-09-09T03:44:24;53848.91;;;-147.39;79.06
3524;BME280;1776;53.330;11.498;2022-09-09T03:46:49;53869.41;;;-147.39;79.00
3524;BME280;1776;53.330;11.498;2022-09-09T03:49:14;53865.31;;;-147.39;78.88
3524;BME280;1776;53.330;11.498;2022-09-09T03:51:40;53859.16;;;-147.39;79.07
3524;BME280;1776;53.330;11.498;2022-09-09T03:54:06;53850.97;;;-147.39;79.43
3524;BME280;1776;53.330;11.498;2022-09-09T03:56:33;53865.31;;;-147.39;79.47
3524;BME280;1776;53.330;11.498;2022-09-09T03:58:59;53881.69;;;-147.39;79.59
3524;BME280;1776;53.330;11.498;2022-09-09T04:01:24;53881.69;;;-147.39;79.29
3524;BME280;1776;53.330;11.498;2022-09-09T04:03:49;53869.41;;;-147.39;79.27
3524;BME280;1776;53.330;11.498;2022-09-09T04:06:18;53887.84;;;-147.39;79.50
3524;BME280;1776;53.330;11.498;2022-09-09T04:08:46;53861.19;;;-147.39;79.70
3524;BME280;1776;53.330;11.498;2022-09-09T04:11:13;53834.56;;;-147.39;79.53
3524;BME280;1776;53.330;11.498;2022-09-09T04:13:39;53875.53;;;-147.39;79.43
3524;BME280;1776;53.330;11.498;2022-09-09T04:16:05;53875.53;;;-147.39;79.17
3524;BME280;1776;53.330;11.498;2022-09-09T04:18:30;53869.41;;;-147.39;79.02
3524;BME280;1776;53.330;11.498;2022-09-09T04:20:56;53861.19;;;-147.39;78.27
3524;BME280;1776;53.330;11.498;2022-09-09T04:23:23;53846.88;;;-147.39;78.05
3524;BME280;1776;53.330;11.498;2022-09-09T04:25:53;53838.66;;;-147.39;77.78
3524;BME280;1776;53.330;11.498;2022-09-09T04:28:20;53855.06;;;-147.39;77.30
3524;BME280;1776;53.330;11.498;2022-09-09T04:30:46;53832.53;;;-147.39;76.77
3524;BME280;1776;53.330;11.498;2022-09-09T04:33:13;53855.06;;;-147.39;76.34
3524;BME280;1776;53.330;11.498;2022-09-09T04:35:38;53795.66;;;-147.39;76.25
3524;BME280;1776;53.330;11.498;2022-09-09T04:38:05;53848.91;;;-147.39;75.83
3524;BME280;1776;53.330;11.498;2022-09-09T04:40:34;53857.09;;;-147.39;75.86
3524;BME280;1776;53.330;11.498;2022-09-09T04:43:01;53842.75;;;-147.39;75.74
3524;BME280;1776;53.330;11.498;2022-09-09T04:45:27;53846.88;;;-147.39;75.67
3524;BME280;1776;53.330;11.498;2022-09-09T04:47:53;53912.41;;;-147.39;75.50
3524;BME280;1776;53.330;11.498;2022-09-09T04:50:19;53844.81;;;-147.39;75.65
3524;BME280;1776;53.330;11.498;2022-09-09T04:52:44;53859.16;;;-147.39;75.79
3524;BME280;1776;53.330;11.498;2022-09-09T04:55:10;53859.16;;;-147.39;75.81
3524;BME280;1776;53.330;11.498;2022-09-09T04:57:35;53836.63;;;-147.39;75.71
3524;BME280;1776;53.330;11.498;2022-09-09T05:00:01;53867.34;;;-147.39;75.50
3524;BME280;1776;53.330;11.498;2022-09-09T05:02:27;53877.59;;;-147.39;75.33
3524;BME280;1776;53.330;11.498;2022-09-09T05:04:52;53865.31;;;-147.39;75.18
3524;BME280;1776;53.330;11.498;2022-09-09T05:07:17;53867.34;;;-147.39;75.11
3524;BME280;1776;53.330;11.498;2022-09-09T05:09:42;53871.44;;;-147.39;74.89
3524;BME280;1776;53.330;11.498;2022-09-09T05:12:08;53857.09;;;-147.39;74.66
3524;BME280;1776;53.330;11.498;2022-09-09T05:14:33;53812.03;;;-147.39;74.52
3524;BME280;1776;53.330;11.498;2022-09-09T05:17:01;53818.19;;;-147.39;74.23
3524;BME280;1776;53.330;11.498;2022-09-09T05:19:26;53871.44;;;-147.39;74.21
3524;BME280;1776;53.330;11.498;2022-09-09T05:21:52;53830.47;;;-147.39;73.96
3524;BME280;1776;53.330;11.498;2022-09-09T05:24:17;53855.06;;;-147.39;73.65
3524;BME280;1776;53.330;11.498;2022-09-09T05:26:42;53853.00;;;-147.39;73.53
3524;BME280;1776;53.330;11.498;2022-09-09T05:29:08;53863.25;;;-147.39;73.63
3524;BME280;1776;53.330;11.498;2022-09-09T05:31:33;53873.50;;;-147.39;73.53
3524;BME280;1776;53.330;11.498;2022-09-09T05:33:59;53869.41;;;-147.39;73.84
3524;BME280;1776;53.330;11.498;2022-09-09T05:36:24;53857.09;;;-147.39;74.00
3524;BME280;1776;53.330;11.498;2022-09-09T05:38:49;53861.19;;;-147.39;74.10
3524;BME280;1776;53.330;11.498;2022-09-09T05:41:16;53859.16;;;-147.39;73.59
3524;BME280;1776;53.330;11.498;2022-09-09T05:43:42;53879.63;;;-147.39;73.49
3524;BME280;1776;53.330;11.498;2022-09-09T05:46:14;53818.19;;;-147.39;73.17
3524;BME280;1776;53.330;11.498;2022-09-09T05:48:41;53861.19;;;-147.39;73.31
3524;BME280;1776;53.330;11.498;2022-09-09T05:51:10;53832.53;;;-147.39;73.06
3524;BME280;1776;53.330;11.498;2022-09-09T05:53:41;53865.31;;;-147.39;73.09
3524;BME280;1776;53.330;11.498;2022-09-09T05:56:09;53836.63;;;-147.39;72.65
3524;BME280;1776;53.330;11.498;2022-09-09T05:58:39;53853.00;;;-147.39;72.57
3524;BME280;1776;53.330;11.498;2022-09-09T06:01:07;53863.25;;;-147.39;72.61
3524;BME280;1776;53.330;11.498;2022-09-09T06:03:34;53846.88;;;-147.39;72.79
3524;BME280;1776;53.330;11.498;2022-09-09T06:06:01;53865.31;;;-147.39;72.82
3524;BME280;1776;53.330;11.498;2022-09-09T06:08:27;53871.44;;;-147.39;72.57
3524;BME280;1776;53.330;11.498;2022-09-09T06:10:53;53857.09;;;-147.39;72.63
3524;BME280;1776;53.330;11.498;2022-09-09T06:13:18;53846.88;;;-147.39;72.81
3524;BME280;1776;53.330;11.498;2022-09-09T06:15:51;53832.53;;;-147.39;72.52
3524;BME280;1776;53.330;11.498;2022-09-09T06:18:17;53857.09;;;-147.39;72.13
3524;BME280;1776;53.330;11.498;2022-09-09T06:21:02;53816.13;;;-147.39;72.13
3524;BME280;1776;53.330;11.498;2022-09-09T06:23:30;53850.97;;;-147.39;72.76
3524;BME280;1776;53.330;11.498;2022-09-09T06:28:34;53848.91;;;-147.39;73.58
3524;BME280;1776;53.330;11.498;2022-09-09T06:31:02;53855.06;;;-147.39;73.90
3524;BME280;1776;53.330;11.498;2022-09-09T06:33:31;53834.56;;;-147.39;74.21
3524;BME280;1776;53.330;11.498;2022-09-09T06:35:57;53842.75;;;-147.39;73.95
3524;BME280;1776;53.330;11.498;2022-09-09T06:38:23;53887.84;;;-147.39;74.00
3524;BME280;1776;53.330;11.498;2022-09-09T06:40:53;53867.34;;;-147.39;74.32
3524;BME280;1776;53.330;11.498;2022-09-09T06:43:19;53830.47;;;-147.39;74.28
3524;BME280;1776;53.330;11.498;2022-09-09T06:45:56;53857.09;;;-147.39;74.13
3524;BME280;1776;53.330;11.498;2022-09-09T06:48:21;53863.25;;;-147.39;74.26
3524;BME280;1776;53.330;11.498;2022-09-09T06:50:47;53855.06;;;-147.39;73.92
3524;BME280;1776;53.330;11.498;2022-09-09T06:53:12;53877.59;;;-147.39;73.83
3524;BME280;1776;53.330;11.498;2022-09-09T06:55:41;53830.47;;;-147.39;73.77
3524;BME280;1776;53.330;11.498;2022-09-09T06:58:09;53830.47;;;-147.39;74.13
3524;BME280;1776;53.330;11.498;2022-09-09T07:00:34;53859.16;;;-147.39;74.16
3524;BME280;1776;53.330;11.498;2022-09-09T07:03:02;53871.44;;;-147.39;74.68
3524;BME280;1776;53.330;11.498;2022-09-09T07:05:28;53857.09;;;-147.39;74.83
3524;BME280;1776;53.330;11.498;2022-09-09T07:07:53;53857.09;;;-147.39;75.50
3524;BME280;1776;53.330;11.498;2022-09-09T07:10:18;53865.31;;;-147.39;75.76
3524;BME280;1776;53.330;11.498;2022-09-09T07:12:43;53844.81;;;-147.39;76.10
3524;BME280;1776;53.330;11.498;2022-09-09T07:15:09;53857.09;;;-147.39;75.85
3524;BME280;1776;53.330;11.498;2022-09-09T07:17:34;53857.09;;;-147.39;75.74
3524;BME280;1776;53.330;11.498;2022-09-09T07:20:00;53844.81;;;-147.39;75.56
3524;BME280;1776;53.330;11.498;2022-09-09T07:22:27;53834.56;;;-147.39;75.21
3524;BME280;1776;53.330;11.498;2022-09-09T07:24:53;53861.19;;;-147.39;75.41
3524;BME280;1776;53.330;11.498;2022-09-09T07:27:18;53869.41;;;-147.39;75.54
3524;BME280;1776;53.330;11.498;2022-09-09T07:29:45;53871.44;;;-147.39;75.48
3524;BME280;1776;53.330;11.498;2022-09-09T07:32:12;53853.00;;;-147.39;74.90
3524;BME280;1776;53.330;11.498;2022-09-09T07:34:37;53832.53;;;-147.39;74.90
3524;BME280;1776;53.330;11.498;2022-09-09T07:37:02;53836.63;;;-147.39;75.16
3524;BME280;1776;53.330;11.498;2022-09-09T07:39:28;53863.25;;;-147.39;74.90
3524;BME280;1776;53.330;11.498;2022-09-09T07:41:53;53861.19;;;-147.39;74.78
3524;BME280;1776;53.330;11.498;2022-09-09T07:44:24;53853.00;;;-147.39;74.50
3524;BME280;1776;53.330;11.498;2022-09-09T07:46:52;53844.81;;;-147.39;74.89
3524;BME280;1776;53.330;11.498;2022-09-09T07:49:17;53826.38;;;-147.39;75.14
3524;BME280;1776;53.330;11.498;2022-09-09T07:51:45;53830.47;;;-147.39;74.96
3524;BME280;1776;53.330;11.498;2022-09-09T07:54:13;53853.00;;;-147.39;74.49
3524;BME280;1776;53.330;11.498;2022-09-09T07:56:39;53809.97;;;-147.39;74.32
3524;BME280;1776;53.330;11.498;2022-09-09T07:59:05;53830.47;;;-147.39;74.09
3524;BME280;1776;53.330;11.498;2022-09-09T08:01:36;53846.88;;;-147.39;73.67
3524;BME280;1776;53.330;11.498;2022-09-09T08:04:09;53857.09;;;-147.39;73.59
3524;BME280;1776;53.330;11.498;2022-09-09T08:06:40;53814.09;;;-147.39;73.16
3524;BME280;1776;53.330;11.498;2022-09-09T08:09:07;53822.28;;;-147.39;73.22
3524;BME280;1776;53.330;11.498;2022-09-09T08:11:32;53848.91;;;-147.39;72.83
3524;BME280;1776;53.330;11.498;2022-09-09T08:13:58;53820.22;;;-147.39;73.07
3524;BME280;1776;53.330;11.498;2022-09-09T08:16:26;53853.00;;;-147.39;72.58
3524;BME280;1776;53.330;11.498;2022-09-09T08:18:52;53824.31;;;-147.39;72.29
3524;BME280;1776;53.330;11.498;2022-09-09T08:21:21;53779.25;;;-147.39;71.27
3524;BME280;1776;53.330;11.498;2022-09-09T08:23:47;53846.88;;;-147.39;71.44
3524;BME280;1776;53.330;11.498;2022-09-09T08:26:18;53797.69;;;-147.39;71.72
3524;BME280;1776;53.330;11.498;2022-09-09T08:28:48;53799.75;;;-147.39;71.33
3524;BME280;1776;53.330;11.498;2022-09-09T08:31:18;53809.97;;;-147.39;71.17
3524;BME280;1776;53.330;11.498;2022-09-09T08:33:44;53830.47;;;-147.39;71.14
3524;BME280;1776;53.330;11.498;2022-09-09T08:36:13;53803.84;;;-147.39;71.06
3524;BME280;1776;53.330;11.498;2022-09-09T08:38:40;53816.13;;;-147.39;70.54
3524;BME280;1776;53.330;11.498;2022-09-09T08:43:52;53769.00;;;-147.39;69.55
3524;BME280;1776;53.330;11.498;2022-09-09T08:50:02;53773.09;;;-147.39;67.88
3524;BME280;1776;53.330;11.498;2022-09-09T08:52:54;53775.16;;;-147.39;67.81
3524;BME280;1776;53.330;11.498;2022-09-09T08:55:27;53781.31;;;-147.39;66.43
3524;BME280;1776;53.330;11.498;2022-09-09T08:57:56;53779.25;;;-147.39;66.57
3524;BME280;1776;53.330;11.498;2022-09-09T09:00:22;53721.88;;;-147.39;65.13
3524;BME280;1776;53.330;11.498;2022-09-09T09:05:37;53760.81;;;-147.39;62.44
3524;BME280;1776;53.330;11.498;2022-09-09T09:08:20;53756.72;;;-147.39;63.12
3524;BME280;1776;53.330;11.498;2022-09-09T09:10:54;53760.81;;;-147.39;64.34
3524;BME280;1776;53.330;11.498;2022-09-09T09:13:31;53783.34;;;-147.39;65.04
3524;BME280;1776;53.330;11.498;2022-09-09T09:16:10;53740.31;;;-147.39;63.77
3524;BME280;1776;53.330;11.498;2022-09-09T09:18:38;53734.19;;;-147.39;63.70
3524;BME280;1776;53.330;11.498;2022-09-09T09:21:16;53715.75;;;-147.39;62.31
3524;BME280;1776;53.330;11.498;2022-09-09T09:24:13;53697.31;;;-147.39;61.64
3524;BME280;1776;53.330;11.498;2022-09-09T09:26:35;53697.31;;;-147.39;59.43
3524;BME280;1776;53.330;11.498;2022-09-09T09:29:12;53709.59;;;-147.39;59.80
3524;BME280;1776;53.330;11.498;2022-09-09T09:31:37;53719.84;;;-147.39;59.38
3524;BME280;1776;53.330;11.498;2022-09-09T09:34:03;53697.31;;;-147.39;59.29
3524;BME280;1776;53.330;11.498;2022-09-09T09:36:40;53703.44;;;-147.39;59.17
3524;BME280;1776;53.330;11.498;2022-09-09T09:39:07;53666.56;;;-147.39;59.74
3524;BME280;1776;53.330;11.498;2022-09-09T09:41:36;53697.31;;;-147.39;58.04
3524;BME280;1776;53.330;11.498;2022-09-09T09:44:04;53691.16;;;-147.39;55.69
3524;BME280;1776;53.330;11.498;2022-09-09T09:46:31;53682.97;;;-147.39;56.44
3524;BME280;1776;53.330;11.498;2022-09-09T09:48:58;53859.16;;;-147.39;57.60
3524;BME280;1776;53.330;11.498;2022-09-09T09:51:25;53646.09;;;-147.39;57.03
3524;BME280;1776;53.330;11.498;2022-09-09T09:53:51;53648.13;;;-147.39;57.05
3524;BME280;1776;53.330;11.498;2022-09-09T09:56:26;53662.47;;;-147.39;56.18
3524;BME280;1776;53.330;11.498;2022-09-09T09:58:54;53666.56;;;-147.39;56.39
3524;BME280;1776;53.330;11.498;2022-09-09T10:01:31;53664.53;;;-147.39;55.88
3524;BME280;1776;53.330;11.498;2022-09-09T10:04:12;53635.84;;;-147.39;55.41
3524;BME280;1776;53.330;11.498;2022-09-09T10:06:39;53646.09;;;-147.39;55.06
3524;BME280;1776;53.330;11.498;2022-09-09T10:09:29;53639.94;;;-147.39;54.00
3524;BME280;1776;53.330;11.498;2022-09-09T10:12:20;53666.56;;;-147.39;54.38
3524;BME280;1776;53.330;11.498;2022-09-09T10:17:47;53617.41;;;-147.39;53.70
3524;BME280;1776;53.330;11.498;2022-09-09T10:20:35;53658.38;;;-147.39;53.64
3524;BME280;1776;53.330;11.498;2022-09-09T10:29:18;53642.00;;;-147.39;52.05
3524;BME280;1776;53.330;11.498;2022-09-09T10:37:21;53633.81;;;-147.39;51.50
3524;BME280;1776;53.330;11.498;2022-09-09T10:42:43;53637.91;;;-147.39;51.64
3524;BME280;1776;53.330;11.498;2022-09-09T10:45:35;53637.91;;;-147.39;52.20
3524;BME280;1776;53.330;11.498;2022-09-09T10:48:16;53662.47;;;-147.39;52.53
3524;BME280;1776;53.330;11.498;2022-09-09T10:50:52;53642.00;;;-147.39;53.23
3524;BME280;1776;53.330;11.498;2022-09-09T10:54:13;53644.03;;;-147.39;53.82
3524;BME280;1776;53.330;11.498;2022-09-09T10:56:51;53670.69;;;-147.39;54.09
3524;BME280;1776;53.330;11.498;2022-09-09T10:59:25;53658.38;;;-147.39;54.10
3524;BME280;1776;53.330;11.498;2022-09-09T11:01:55;53656.34;;;-147.39;53.88
3524;BME280;1776;53.330;11.498;2022-09-09T11:04:28;53656.34;;;-147.39;53.82
3524;BME280;1776;53.330;11.498;2022-09-09T11:06:58;53656.34;;;-147.39;52.95
3524;BME280;1776;53.330;11.498;2022-09-09T11:09:33;53658.38;;;-147.39;52.57
3524;BME280;1776;53.330;11.498;2022-09-09T11:12:02;53650.19;;;-147.39;52.59
3524;BME280;1776;53.330;11.498;2022-09-09T11:14:38;53617.41;;;-147.39;52.71
3524;BME280;1776;53.330;11.498;2022-09-09T11:17:11;53662.47;;;-147.39;52.97
3524;BME280;1776;53.330;11.498;2022-09-09T11:19:40;53660.44;;;-147.39;52.78
3524;BME280;1776;53.330;11.498;2022-09-09T11:22:22;53635.84;;;-147.39;52.07
3524;BME280;1776;53.330;11.498;2022-09-09T11:24:53;53668.63;;;-147.39;53.06
3524;BME280;1776;53.330;11.498;2022-09-09T11:27:27;53633.81;;;-147.39;52.74
3524;BME280;1776;53.330;11.498;2022-09-09T11:38:48;53637.91;;;-147.39;50.96
3524;BME280;1776;53.330;11.498;2022-09-09T11:41:16;53617.41;;;-147.39;51.39
3524;BME280;1776;53.330;11.498;2022-09-09T11:43:48;53625.59;;;-147.39;51.61
3524;BME280;1776;53.330;11.498;2022-09-09T11:46:19;53619.47;;;-147.39;51.52
3524;BME280;1776;53.330;11.498;2022-09-09T11:48:57;53633.81;;;-147.39;52.49
3524;BME280;1776;53.330;11.498;2022-09-09T11:51:30;53629.69;;;-147.39;52.76
3524;BME280;1776;53.330;11.498;2022-09-09T11:53:57;53652.25;;;-147.39;53.10
3524;BME280;1776;53.330;11.498;2022-09-09T11:56:33;53656.34;;;-147.39;52.95
3524;BME280;1776;53.330;11.498;2022-09-09T11:59:19;53664.53;;;-147.39;53.17
3524;BME280;1776;53.330;11.498;2022-09-09T12:01:50;53639.94;;;-147.39;53.72
3524;BME280;1776;53.330;11.498;2022-09-09T12:06:55;53660.44;;;-147.39;54.12
3524;BME280;1776;53.330;11.498;2022-09-09T12:09:39;53654.28;;;-147.39;54.21
3524;BME280;1776;53.330;11.498;2022-09-09T12:17:49;53670.69;;;-147.39;55.20
3524;BME280;1776;53.330;11.498;2022-09-09T12:20:38;53654.28;;;-147.39;55.35
3524;BME280;1776;53.330;11.498;2022-09-09T12:26:28;53734.19;;;-147.39;54.96
3524;BME280;1776;53.330;11.498;2022-09-09T12:31:48;53621.50;;;-147.39;53.93
3524;BME280;1776;53.330;11.498;2022-09-09T12:37:17;53629.69;;;-147.39;53.26
3524;BME280;1776;53.330;11.498;2022-09-09T12:39:56;53648.13;;;-147.39;52.98
3524;BME280;1776;53.330;11.498;2022-09-09T12:42:23;53652.25;;;-147.39;53.30
3524;BME280;1776;53.330;11.498;2022-09-09T12:44:53;53637.91;;;-147.39;51.88
3524;BME280;1776;53.330;11.498;2022-09-09T12:47:21;53660.44;;;-147.39;51.90
3524;BME280;1776;53.330;11.498;2022-09-09T12:49:48;53654.28;;;-147.39;52.68
3524;BME280;1776;53.330;11.498;2022-09-09T12:52:28;53627.66;;;-147.39;52.80
3524;BME280;1776;53.330;11.498;2022-09-09T12:54:55;53639.94;;;-147.39;52.01
3524;BME280;1776;53.330;11.498;2022-09-09T12:57:23;53674.78;;;-147.39;52.55
3524;BME280;1776;53.330;11.498;2022-09-09T12:59:50;53670.69;;;-147.39;52.44
3524;BME280;1776;53.330;11.498;2022-09-09T13:02:22;53642.00;;;-147.39;52.49
3524;BME280;1776;53.330;11.498;2022-09-09T13:04:48;53627.66;;;-147.39;52.39
3524;BME280;1776;53.330;11.498;2022-09-09T13:07:15;53627.66;;;-147.39;51.33
3524;BME280;1776;53.330;11.498;2022-09-09T13:09:41;53627.66;;;-147.39;51.89
3524;BME280;1776;53.330;11.498;2022-09-09T13:12:14;53629.69;;;-147.39;51.42
3524;BME280;1776;53.330;11.498;2022-09-09T13:14:43;53603.06;;;-147.39;51.34
3524;BME280;1776;53.330;11.498;2022-09-09T13:17:23;53664.53;;;-147.39;51.47
3524;BME280;1776;53.330;11.498;2022-09-09T13:19:50;53642.00;;;-147.39;51.52
3524;BME280;1776;53.330;11.498;2022-09-09T13:22:31;53639.94;;;-147.39;51.75
3524;BME280;1776;53.330;11.498;2022-09-09T13:25:17;53629.69;;;-147.39;51.43
3524;BME280;1776;53.330;11.498;2022-09-09T13:27:57;53605.13;;;-147.39;50.81
3524;BME280;1776;53.330;11.498;2022-09-09T13:35:47;53617.41;;;-147.39;50.38
3524;BME280;1776;53.330;11.498;2022-09-09T13:38:15;53619.47;;;-147.39;50.38
3524;BME280;1776;53.330;11.498;2022-09-09T13:40:52;53631.75;;;-147.39;50.44
3524;BME280;1776;53.330;11.498;2022-09-09T13:43:21;53605.13;;;-147.39;50.27
3524;BME280;1776;53.330;11.498;2022-09-09T13:45:58;53631.75;;;-147.39;50.20
3524;BME280;1776;53.330;11.498;2022-09-09T13:48:24;53631.75;;;-147.39;49.99
3524;BME280;1776;53.330;11.498;2022-09-09T13:51:02;53623.56;;;-147.39;51.05
3524;BME280;1776;53.330;11.498;2022-09-09T13:53:30;53629.69;;;-147.39;50.55
3524;BME280;1776;53.330;11.498;2022-09-09T13:55:55;53633.81;;;-147.39;50.81
3524;BME280;1776;53.330;11.498;2022-09-09T13:58:22;53646.09;;;-147.39;51.27
3524;BME280;1776;53.330;11.498;2022-09-09T14:00:48;53633.81;;;-147.39;51.04
3524;BME280;1776;53.330;11.498;2022-09-09T14:03:13;53621.50;;;-147.39;51.09
3524;BME280;1776;53.330;11.498;2022-09-09T14:05:39;53631.75;;;-147.39;51.03
3524;BME280;1776;53.330;11.498;2022-09-09T14:08:05;53629.69;;;-147.39;51.17
3524;BME280;1776;53.330;11.498;2022-09-09T14:10:31;53592.81;;;-147.39;51.49
3524;BME280;1776;53.330;11.498;2022-09-09T14:12:56;53590.78;;;-147.39;51.17
3524;BME280;1776;53.330;11.498;2022-09-09T14:15:22;53615.38;;;-147.39;51.20
3524;BME280;1776;53.330;11.498;2022-09-09T14:17:47;53639.94;;;-147.39;51.64
3524;BME280;1776;53.330;11.498;2022-09-09T14:20:14;53629.69;;;-147.39;51.66
3524;BME280;1776;53.330;11.498;2022-09-09T14:22:41;53623.56;;;-147.39;51.48
3524;BME280;1776;53.330;11.498;2022-09-09T14:25:07;53633.81;;;-147.39;51.41
3524;BME280;1776;53.330;11.498;2022-09-09T14:27:32;53629.69;;;-147.39;52.79
3524;BME280;1776;53.330;11.498;2022-09-09T14:29:58;53668.63;;;-147.39;51.60
3524;BME280;1776;53.330;11.498;2022-09-09T14:32:25;53707.56;;;-147.39;54.66
3524;BME280;1776;53.330;11.498;2022-09-09T14:34:50;53723.94;;;-147.39;56.12